Flight Track Log - Related Links

Times and Time Zones

All times are in EDT time to prevent confusion due to time zone crossing. See the RPA3228 flight status page for this flight to view local times or setup timezone preferences in your user account.

Time Position Orientation Groundspeed Altitude Reporting Facility
EDT Latitude Longitude Course Direction KTS MPH feet Rate Location/Type
Sat 10:30:23 AM 38.8000 -77.0333 339° North 197 227 2,300  Level Potomac TRACON
Sat 10:31:23 AM 38.7500 -77.0833 218° Southwest 261 300 4,900 2,975 Climbing Potomac TRACON
Sat 10:32:00 AM 39.1885 -77.2184 346° North  Level FlightAware Approximate
Sat 10:32:24 AM 38.7333 -77.1667 256° West 271 312 8,300  Level Potomac TRACON
Sat 10:33:00 AM 39.2795 -77.2589 337° Northwest  Level FlightAware Approximate
Sat 10:33:24 AM 38.7667 -77.2500 297° West 305 351 11,300  Level Potomac TRACON
Sat 10:34:00 AM 39.3683 -77.3083 337° Northwest  Level FlightAware Approximate
Sat 10:34:18 AM 38.8500 -77.3000 335° Northwest 326 375 13,800  Level Potomac TRACON
Sat 10:35:00 AM 39.4557 -77.3612 339° North  Level FlightAware Approximate
Sat 10:35:19 AM 38.9333 -77.3500 335° Northwest 357 411 16,400  Level Potomac TRACON
Sat 10:36:19 AM 39.0333 -77.3667 353° North 395 455 17,100 350 Climbing Potomac TRACON
Sat 10:37:19 AM 39.1500 -77.3833 354° North 363 418 17,100 335 Level Potomac TRACON
Sat 10:39:18 AM 39.3458 -77.4111 354° North 375 432 18,100 644 Climbing Washington Center
Sat 10:40:16 AM 39.4517 -77.4272 353° North 375 432 19,000 454 Climbing Washington Center
Sat 10:41:17 AM 39.5556 -77.4433 353° North 375 432 19,000 380 Level Washington Center
Sat 10:42:54 AM 39.7303 -77.4550 357° North 409 471 20,000 390 Climbing New York Center
Sat 10:43:51 AM 39.8350 -77.4811 349° North 396 456 20,000 718 Level New York Center
Sat 10:44:51 AM 39.9392 -77.5211 344° North 390 449 21,400 992 Climbing New York Center
Sat 10:45:52 AM 40.0431 -77.5608 344° North 390 449 22,000 298 Climbing New York Center
Sat 10:46:52 AM 40.1475 -77.5983 345° North 390 449 22,000  Level New York Center
Sat 10:47:53 AM 40.2533 -77.6414 343° North 390 449 22,000  Level New York Center
Sat 10:48:52 AM 40.3572 -77.6817 344° North 390 449 22,000  Level New York Center
Sat 10:49:52 AM 40.4694 -77.7256 343° North 396 456 22,000  Level New York Center
Sat 10:52:00 AM 40.6967 -77.8169 343° North 431 496 22,000  Level Cleveland Center
Sat 10:53:00 AM 40.8228 -77.8667 343° North 425 489 22,000  Level Cleveland Center
Sat 10:54:00 AM 40.9364 -77.9086 344° North 425 489 22,000  Level Cleveland Center
Sat 10:55:00 AM 41.0481 -77.9536 343° North 425 489 22,000  Level Cleveland Center
Sat 10:56:00 AM 41.1594 -77.9989 343° North 425 489 22,000  Level Cleveland Center
Sat 10:57:00 AM 41.2731 -78.0442 343° North 425 489 22,000  Level Cleveland Center
Sat 10:58:00 AM 41.3844 -78.0867 344° North 425 489 22,000  Level Cleveland Center
Sat 10:59:00 AM 41.4939 -78.1325 343° North 420 483 22,000  Level Cleveland Center
Sat 11:00:00 AM 41.6033 -78.1783 343° North 420 483 22,000  Level Cleveland Center
Sat 11:01:00 AM 41.7042 -78.2192 343° North 420 483 22,000 -800 Level Cleveland Center
Sat 11:02:00 AM 41.8136 -78.2625 344° North 415 478 20,400 -1,750 Descending Cleveland Center
Sat 11:03:00 AM 41.9208 -78.3061 343° North 409 471 18,500 -1,800 Descending Cleveland Center
Sat 11:04:00 AM 42.0217 -78.3469 343° North 399 459 16,800 -1,750 Descending Cleveland Center
Sat 11:05:00 AM 42.1247 -78.3939 341° North 388 447 15,000 -1,900 Descending Cleveland Center
Sat 11:06:00 AM 42.2339 -78.4350 344° North 382 440 13,000 -1,850 Descending Cleveland Center
Sat 11:07:00 AM 42.3283 -78.4739 343° North 366 421 11,300 -1,000 Descending Cleveland Center
Sat 11:08:00 AM 42.4208 -78.5131 343° North 354 407 11,000 -550 Descending Cleveland Center
Sat 11:09:00 AM 42.5047 -78.5469 343° North 342 394 10,200 -1,500 Descending Cleveland Center
Sat 11:10:00 AM 42.5847 -78.5839 341° North 311 358 8,000 -2,100 Descending Cleveland Center
Sat 11:11:00 AM 42.6497 -78.6100 344° North 284 327 6,000 -1,900 Descending Cleveland Center
Sat 11:12:00 AM 42.7308 -78.6075 North 271 312 4,200 -1,000 Descending Cleveland Center
Sat 11:13:00 AM 42.7953 -78.5883 12° North 248 285 4,000 -150 Descending Cleveland Center
Sat 11:14:00 AM 42.8597 -78.5778 North 237 273 3,900 -400 Descending Cleveland Center
Sat 11:15:00 AM 42.9094 -78.5650 11° North 216 249 3,200 -700 Descending Cleveland Center
Sat 11:16:00 AM 42.9592 -78.5519 11° North 199 229 2,500 -350 Descending Cleveland Center
Sat 11:17:00 AM 43.0036 -78.5817 334° Northwest 174 200 2,500 -243 Level Cleveland Center
Sat 11:18:28 AM 43.0000 -78.6667 267° West 169 194 1,900 -409 Descending Buffalo TRACON

Login

Don't have an account? Register now (free) for customized features, flight alerts, and more!